createdAt,value
2018-12-15T00:02:11.273Z,8.05
2018-12-15T00:04:37.501Z,7.97
2018-12-15T00:07:03.762Z,7.99
2018-12-15T00:09:29.913Z,7.95
2018-12-15T00:11:56.185Z,7.98
2018-12-15T00:14:22.325Z,7.96
2018-12-15T00:16:48.470Z,7.87
2018-12-15T00:19:14.653Z,7.88
2018-12-15T00:21:40.890Z,7.85
2018-12-15T00:24:07.037Z,7.51
2018-12-15T00:26:33.379Z,7.71
2018-12-15T00:28:59.590Z,7.88
2018-12-15T00:31:25.835Z,7.95
2018-12-15T00:33:52.077Z,7.47
2018-12-15T00:36:18.193Z,7.72
2018-12-15T00:38:44.501Z,7.98
2018-12-15T00:41:10.661Z,8.20
2018-12-15T00:43:36.801Z,8.21
2018-12-15T00:46:02.982Z,7.93
2018-12-15T00:48:29.226Z,8.01
2018-12-15T00:50:55.435Z,8.00
2018-12-15T00:53:21.681Z,7.87
2018-12-15T00:55:47.837Z,7.98
2018-12-15T00:58:14.429Z,7.96
2018-12-15T01:00:41.151Z,8.10
2018-12-15T01:03:07.329Z,8.14
2018-12-15T01:05:33.492Z,8.22
2018-12-15T01:07:59.653Z,7.92
2018-12-15T01:10:25.825Z,7.89
2018-12-15T01:12:52.117Z,7.76
2018-12-15T01:15:20.446Z,7.74
2018-12-15T01:17:46.649Z,7.66
2018-12-15T01:20:12.794Z,7.74
2018-12-15T01:22:39.078Z,7.67
2018-12-15T01:25:05.307Z,7.63
2018-12-15T01:27:31.500Z,7.66
2018-12-15T01:29:57.673Z,7.54
2018-12-15T01:32:24.181Z,7.49
2018-12-15T01:34:50.314Z,7.48
2018-12-15T01:37:16.472Z,7.47
2018-12-15T01:39:42.879Z,7.06
2018-12-15T01:42:09.073Z,7.21
2018-12-15T01:44:35.332Z,7.38
2018-12-15T01:47:01.561Z,7.56
2018-12-15T01:49:27.760Z,7.50
2018-12-15T01:51:54.016Z,7.22
2018-12-15T01:54:20.468Z,7.23
2018-12-15T01:56:46.676Z,7.55
2018-12-15T01:59:12.870Z,7.71
2018-12-15T02:01:39.132Z,7.83
2018-12-15T02:04:05.359Z,7.92
2018-12-15T02:06:31.557Z,7.85
2018-12-15T02:08:57.787Z,7.84
2018-12-15T02:11:23.938Z,7.97
2018-12-15T02:13:50.072Z,7.87
2018-12-15T02:16:16.296Z,7.76
2018-12-15T02:18:42.438Z,7.68
2018-12-15T02:21:08.748Z,7.80
2018-12-15T02:23:34.978Z,7.72
2018-12-15T02:26:01.124Z,6.98
2018-12-15T02:28:27.432Z,6.97
2018-12-15T02:30:53.584Z,6.56
2018-12-15T02:33:19.733Z,6.17
2018-12-15T02:35:46.104Z,6.02
2018-12-15T02:38:12.304Z,6.08
2018-12-15T02:40:38.427Z,6.15
2018-12-15T02:43:04.570Z,6.52
2018-12-15T02:45:31.198Z,6.82
2018-12-15T02:47:57.463Z,6.92
2018-12-15T02:50:23.596Z,7.01
2018-12-15T02:52:49.915Z,6.85
2018-12-15T02:55:16.057Z,6.91
2018-12-15T02:57:42.335Z,6.95
2018-12-15T03:00:08.565Z,7.12
2018-12-15T03:02:34.829Z,6.97
2018-12-15T03:05:00.973Z,6.84
2018-12-15T03:07:27.282Z,6.29
2018-12-15T03:09:53.713Z,6.47
2018-12-15T03:12:19.944Z,6.45
2018-12-15T03:14:46.172Z,6.70
2018-12-15T03:17:12.333Z,7.15
2018-12-15T03:19:38.477Z,7.01
2018-12-15T03:22:04.824Z,6.87
2018-12-15T03:24:31.049Z,7.13
2018-12-15T03:26:57.212Z,7.37
2018-12-15T03:29:23.538Z,7.59
2018-12-15T03:31:49.729Z,7.80
2018-12-15T03:34:16.110Z,7.71
2018-12-15T03:36:42.281Z,7.77
2018-12-15T03:39:08.530Z,7.95
2018-12-15T03:41:34.757Z,8.03
2018-12-15T03:44:00.994Z,8.01
2018-12-15T03:46:27.246Z,7.39
2018-12-15T03:48:53.377Z,7.37
2018-12-15T03:51:19.571Z,7.42
2018-12-15T03:53:45.719Z,7.69
2018-12-15T03:56:11.922Z,7.90
2018-12-15T03:58:38.158Z,7.96
2018-12-15T04:01:04.337Z,8.05
2018-12-15T04:03:30.605Z,8.15
2018-12-15T04:05:56.770Z,7.68
2018-12-15T04:08:23.062Z,7.61
2018-12-15T04:10:49.292Z,7.65
2018-12-15T04:13:22.472Z,7.86
2018-12-15T04:15:48.711Z,7.66
2018-12-15T04:18:14.966Z,7.62
2018-12-15T04:20:41.195Z,7.73
2018-12-15T04:23:07.338Z,7.56
2018-12-15T04:25:33.484Z,7.72
2018-12-15T04:27:59.667Z,7.95
2018-12-15T04:30:25.873Z,7.83
2018-12-15T04:32:52.129Z,8.01
2018-12-15T04:35:18.295Z,7.64
2018-12-15T04:37:44.549Z,7.85
2018-12-15T04:40:11.037Z,7.84
2018-12-15T04:42:37.204Z,7.69
2018-12-15T04:45:04.171Z,7.57
2018-12-15T04:47:30.693Z,7.61
2018-12-15T04:49:56.951Z,7.61
2018-12-15T04:52:23.180Z,7.33
2018-12-15T04:54:49.345Z,7.48
2018-12-15T04:57:15.574Z,7.72
2018-12-15T04:59:41.829Z,7.66
2018-12-15T05:02:08.093Z,7.48
2018-12-15T05:04:34.283Z,7.76
2018-12-15T05:07:00.411Z,7.88
2018-12-15T05:09:26.552Z,7.95
2018-12-15T05:11:52.716Z,8.06
2018-12-15T05:14:18.992Z,8.01
2018-12-15T05:16:45.126Z,7.95
2018-12-15T05:19:11.448Z,7.82
2018-12-15T05:21:37.707Z,7.74
2018-12-15T05:24:03.833Z,7.90
2018-12-15T05:26:30.128Z,7.45
2018-12-15T05:28:56.368Z,7.45
2018-12-15T05:31:22.492Z,7.57
2018-12-15T05:33:48.658Z,7.71
2018-12-15T05:36:14.813Z,7.30
2018-12-15T05:38:41.067Z,6.94
2018-12-15T05:41:07.264Z,7.08
2018-12-15T05:43:33.390Z,7.25
2018-12-15T05:45:59.541Z,7.51
2018-12-15T05:48:25.705Z,7.52
2018-12-15T05:50:52.031Z,7.58
2018-12-15T05:53:18.226Z,7.40
2018-12-15T05:55:44.409Z,7.43
2018-12-15T05:58:10.715Z,7.33
2018-12-15T06:00:37.100Z,7.28
2018-12-15T06:03:03.375Z,7.23
2018-12-15T06:05:29.649Z,6.77
2018-12-15T06:07:55.831Z,6.84
2018-12-15T06:10:22.029Z,6.74
2018-12-15T06:12:48.287Z,6.64
2018-12-15T06:15:14.432Z,6.78
2018-12-15T06:17:40.604Z,6.90
2018-12-15T06:20:13.697Z,7.13
2018-12-15T06:22:39.920Z,6.91
2018-12-15T06:25:06.126Z,7.23
2018-12-15T06:27:32.377Z,7.28
2018-12-15T06:29:58.611Z,7.46
2018-12-15T06:32:24.792Z,7.69
2018-12-15T06:34:50.949Z,7.97
2018-12-15T06:37:17.110Z,8.14
2018-12-15T06:39:43.281Z,8.08
2018-12-15T06:42:09.458Z,7.82
2018-12-15T06:44:35.768Z,7.91
2018-12-15T06:47:01.946Z,8.23
2018-12-15T06:49:28.659Z,8.25
2018-12-15T06:51:54.895Z,8.33
2018-12-15T06:54:21.122Z,8.33
2018-12-15T06:56:47.268Z,8.45
2018-12-15T06:59:13.552Z,8.59
2018-12-15T07:01:39.754Z,8.41
2018-12-15T07:04:05.889Z,8.57
2018-12-15T07:06:32.051Z,8.64
2018-12-15T07:08:58.206Z,8.65
2018-12-15T07:11:24.372Z,8.76
2018-12-15T07:13:50.740Z,8.65
2018-12-15T07:16:16.902Z,8.72
2018-12-15T07:18:45.010Z,8.57
2018-12-15T07:21:11.373Z,8.60
2018-12-15T07:23:37.553Z,8.80
2018-12-15T07:26:03.894Z,8.92
2018-12-15T07:28:30.127Z,8.78
2018-12-15T07:30:56.297Z,8.34
2018-12-15T07:33:22.609Z,7.60
2018-12-15T07:35:48.837Z,7.28
2018-12-15T07:38:14.994Z,7.52
2018-12-15T07:40:41.293Z,7.89
2018-12-15T07:43:07.481Z,8.41
2018-12-15T07:45:33.716Z,8.43
2018-12-15T07:47:59.976Z,7.51
2018-12-15T07:50:26.146Z,7.61
2018-12-15T07:52:52.314Z,7.52
2018-12-15T07:55:18.624Z,7.93
2018-12-15T07:57:44.886Z,8.48
2018-12-15T08:00:11.318Z,8.96
2018-12-15T08:02:37.499Z,9.40
2018-12-15T08:05:04.501Z,9.70
2018-12-15T08:07:30.792Z,10.04
2018-12-15T08:09:58.977Z,10.26
2018-12-15T08:12:31.271Z,10.41
2018-12-15T08:14:57.495Z,10.28
2018-12-15T08:17:23.647Z,10.11
2018-12-15T08:19:49.921Z,10.08
2018-12-15T08:22:16.073Z,10.15
2018-12-15T08:24:42.373Z,10.51
2018-12-15T08:27:08.602Z,10.28
2018-12-15T08:29:34.766Z,10.32
2018-12-15T08:32:00.910Z,10.07
2018-12-15T08:34:27.101Z,10.38
2018-12-15T08:36:53.253Z,10.31
2018-12-15T08:39:19.533Z,10.64
2018-12-15T08:41:45.709Z,10.29
2018-12-15T08:44:12.023Z,10.44
2018-12-15T08:46:38.219Z,10.27
2018-12-15T08:49:04.717Z,10.13
2018-12-15T08:51:31.916Z,9.84
2018-12-15T08:53:58.105Z,9.46
2018-12-15T08:56:24.282Z,9.86
2018-12-15T08:58:50.427Z,10.05
2018-12-15T09:01:16.581Z,9.31
2018-12-15T09:03:42.746Z,9.24
2018-12-15T09:06:09.095Z,9.49
2018-12-15T09:08:35.323Z,9.61
2018-12-15T09:11:01.485Z,9.59
2018-12-15T09:13:27.781Z,9.68
2018-12-15T09:15:53.976Z,9.58
2018-12-15T09:18:20.142Z,9.21
2018-12-15T09:20:46.462Z,9.36
2018-12-15T09:23:12.690Z,9.40
2018-12-15T09:25:38.849Z,9.12
2018-12-15T09:28:05.145Z,9.08
2018-12-15T09:30:31.303Z,8.75
2018-12-15T09:32:57.601Z,8.80
2018-12-15T09:35:23.827Z,9.38
2018-12-15T09:37:49.997Z,8.64
2018-12-15T09:40:16.186Z,7.97
2018-12-15T09:42:42.305Z,7.29
2018-12-15T09:45:08.535Z,8.08
2018-12-15T09:47:34.721Z,7.87
2018-12-15T09:50:00.990Z,7.53
2018-12-15T09:52:27.218Z,7.65
2018-12-15T09:54:53.373Z,7.63
2018-12-15T09:57:19.492Z,7.18
2018-12-15T09:59:45.636Z,7.45
2018-12-15T10:02:11.813Z,7.41
2018-12-15T10:04:38.026Z,7.10
2018-12-15T10:07:04.325Z,6.83
2018-12-15T10:09:30.517Z,7.61
2018-12-15T10:11:56.722Z,7.70
2018-12-15T10:14:22.848Z,6.92
2018-12-15T10:16:49.041Z,6.83
2018-12-15T10:19:15.450Z,7.31
2018-12-15T10:21:41.615Z,7.38
2018-12-15T10:24:07.789Z,7.77
2018-12-15T10:26:33.941Z,7.95
2018-12-15T10:29:00.093Z,7.38
2018-12-15T10:31:32.301Z,7.33
2018-12-15T10:33:58.434Z,7.51
2018-12-15T10:36:24.600Z,7.80
2018-12-15T10:38:50.870Z,6.94
2018-12-15T10:41:17.070Z,7.28
2018-12-15T10:43:43.326Z,7.33
2018-12-15T10:46:09.568Z,8.07
2018-12-15T10:48:35.701Z,8.18
2018-12-15T10:51:01.877Z,8.79
2018-12-15T10:53:28.052Z,8.71
2018-12-15T10:55:54.211Z,8.22
2018-12-15T10:58:20.368Z,7.64
2018-12-15T11:00:52.536Z,7.42
2018-12-15T11:03:18.686Z,7.74
2018-12-15T11:05:44.829Z,7.65
2018-12-15T11:08:11.049Z,7.84
2018-12-15T11:10:37.197Z,7.25
2018-12-15T11:13:03.368Z,7.62
2018-12-15T11:15:29.558Z,7.10
2018-12-15T11:17:55.697Z,7.08
2018-12-15T11:20:21.864Z,7.08
2018-12-15T11:22:48.028Z,7.20
2018-12-15T11:25:14.173Z,7.05
2018-12-15T11:27:40.305Z,7.12
2018-12-15T11:30:06.745Z,7.26
2018-12-15T11:32:32.900Z,7.19
2018-12-15T11:34:59.057Z,7.49
2018-12-15T11:37:25.258Z,7.42
2018-12-15T11:39:51.416Z,7.03
2018-12-15T11:42:17.573Z,7.38
2018-12-15T11:44:43.742Z,7.67
2018-12-15T11:47:09.861Z,7.39
2018-12-15T11:49:35.998Z,6.85
2018-12-15T11:52:02.197Z,6.61
2018-12-15T11:54:28.355Z,6.75
2018-12-15T11:56:54.564Z,6.65
2018-12-15T11:59:20.725Z,6.98
2018-12-15T12:01:46.870Z,7.06
2018-12-15T12:04:13.013Z,7.17
2018-12-15T12:06:39.180Z,7.40
2018-12-15T12:09:05.348Z,7.14
2018-12-15T12:11:31.693Z,7.39
2018-12-15T12:14:00.483Z,7.59
2018-12-15T12:16:26.175Z,7.62
2018-12-15T12:18:52.427Z,7.61
2018-12-15T12:21:18.594Z,8.00
2018-12-15T12:23:44.914Z,7.52
2018-12-15T12:26:11.077Z,8.00
2018-12-15T12:28:37.368Z,7.54
2018-12-15T12:31:03.519Z,7.55
2018-12-15T12:33:29.661Z,7.74
2018-12-15T12:35:55.907Z,7.78
2018-12-15T12:38:22.249Z,8.25
2018-12-15T12:40:48.400Z,8.67
2018-12-15T12:43:14.606Z,8.64
2018-12-15T12:45:40.762Z,8.69
2018-12-15T12:48:07.025Z,8.50
2018-12-15T12:50:33.198Z,8.31
2018-12-15T12:52:59.341Z,8.38
2018-12-15T12:55:25.477Z,8.47
2018-12-15T12:57:51.641Z,7.91
2018-12-15T13:00:17.781Z,8.27
2018-12-15T13:02:43.930Z,8.67
2018-12-15T13:05:10.217Z,8.77
2018-12-15T13:07:36.399Z,8.40
2018-12-15T13:10:03.404Z,8.60
2018-12-15T13:12:29.605Z,8.46
2018-12-15T13:14:55.774Z,8.84
2018-12-15T13:17:22.026Z,8.64
2018-12-15T13:19:48.238Z,8.43
2018-12-15T13:22:14.370Z,7.90
2018-12-15T13:24:40.528Z,7.87
2018-12-15T13:27:06.741Z,7.44
2018-12-15T13:29:32.882Z,7.93
2018-12-15T13:31:59.025Z,8.14
2018-12-15T13:34:25.242Z,8.03
2018-12-15T13:36:51.394Z,8.19
2018-12-15T13:39:17.541Z,8.28
2018-12-15T13:41:43.744Z,8.02
2018-12-15T13:44:09.890Z,7.77
2018-12-15T13:46:36.021Z,8.02
2018-12-15T13:49:02.249Z,8.02
2018-12-15T13:51:28.408Z,7.30
2018-12-15T13:53:54.561Z,7.16
2018-12-15T13:56:20.742Z,6.86
2018-12-15T13:58:47.021Z,7.51
2018-12-15T14:01:13.153Z,7.45
2018-12-15T14:03:39.335Z,7.30
2018-12-15T14:06:05.474Z,7.30
2018-12-15T14:08:31.601Z,7.06
2018-12-15T14:10:57.790Z,7.00
2018-12-15T14:13:23.949Z,6.98
2018-12-15T14:15:50.338Z,7.12
2018-12-15T14:18:16.646Z,7.39
2018-12-15T14:20:42.793Z,7.25
2018-12-15T14:23:09.142Z,7.42
2018-12-15T14:25:35.342Z,7.06
2018-12-15T14:28:01.472Z,7.11
2018-12-15T14:30:28.510Z,7.00
2018-12-15T14:32:54.709Z,6.66
2018-12-15T14:35:20.857Z,6.87
2018-12-15T14:37:47.292Z,6.52
2018-12-15T14:40:13.462Z,6.73
2018-12-15T14:42:39.621Z,6.46
2018-12-15T14:45:06.030Z,6.59
2018-12-15T14:47:32.194Z,7.00
2018-12-15T14:49:58.348Z,7.06
2018-12-15T14:52:25.538Z,7.35
2018-12-15T14:54:51.710Z,7.49
2018-12-15T14:57:19.893Z,7.24
2018-12-15T14:59:46.025Z,7.17
2018-12-15T15:02:12.223Z,7.14
2018-12-15T15:04:38.448Z,7.46
2018-12-15T15:07:04.617Z,7.85
2018-12-15T15:09:30.797Z,7.49
2018-12-15T15:11:56.948Z,7.39
2018-12-15T15:14:23.085Z,7.13
2018-12-15T15:16:49.253Z,7.46
2018-12-15T15:19:15.376Z,7.37
2018-12-15T15:21:41.516Z,7.20
2018-12-15T15:24:07.787Z,7.17
2018-12-15T15:26:35.069Z,7.60
2018-12-15T15:29:01.458Z,7.36
2018-12-15T15:31:27.627Z,7.39
2018-12-15T15:33:53.770Z,7.05
2018-12-15T15:36:19.921Z,7.53
2018-12-15T15:38:46.104Z,7.40
2018-12-15T15:41:12.269Z,7.92
2018-12-15T15:43:38.416Z,7.29
2018-12-15T15:46:04.616Z,6.93
2018-12-15T15:48:30.779Z,6.69
2018-12-15T15:50:56.952Z,6.52
2018-12-15T15:53:30.130Z,6.72
2018-12-15T15:55:56.321Z,6.81
2018-12-15T15:58:22.513Z,6.74
2018-12-15T16:00:49.020Z,6.93
2018-12-15T16:03:15.450Z,7.14
2018-12-15T16:05:41.680Z,6.90
2018-12-15T16:08:08.113Z,6.60
2018-12-15T16:10:34.764Z,6.84
2018-12-15T16:13:01.165Z,6.85
2018-12-15T16:15:27.341Z,7.10
2018-12-15T16:17:53.840Z,7.16
2018-12-15T16:20:20.312Z,7.00
2018-12-15T16:22:46.706Z,7.12
2018-12-15T16:25:12.935Z,6.85
2018-12-15T16:27:39.162Z,6.73
2018-12-15T16:30:07.238Z,7.00
2018-12-15T16:32:33.461Z,7.35
2018-12-15T16:34:59.636Z,7.08
2018-12-15T16:37:25.805Z,7.03
2018-12-15T16:39:52.122Z,7.03
2018-12-15T16:42:18.281Z,6.97
2018-12-15T16:44:44.457Z,6.36
2018-12-15T16:47:10.608Z,6.38
2018-12-15T16:49:36.853Z,6.30
2018-12-15T16:52:10.185Z,6.82
2018-12-15T16:54:36.330Z,6.73
2018-12-15T16:57:02.501Z,6.89
2018-12-15T16:59:28.954Z,6.83
2018-12-15T17:01:55.346Z,6.33
2018-12-15T17:04:22.032Z,6.60
2018-12-15T17:06:48.671Z,6.78
2018-12-15T17:09:15.307Z,6.91
2018-12-15T17:11:41.708Z,7.11
2018-12-15T17:14:07.864Z,6.66
2018-12-15T17:16:34.150Z,6.42
2018-12-15T17:19:01.053Z,6.39
2018-12-15T17:21:27.817Z,6.82
2018-12-15T17:23:53.957Z,6.80
2018-12-15T17:26:20.098Z,6.67
2018-12-15T17:28:46.264Z,6.48
2018-12-15T17:31:12.436Z,6.28
2018-12-15T17:33:38.605Z,6.57
2018-12-15T17:36:05.011Z,6.68
2018-12-15T17:38:31.401Z,6.22
2018-12-15T17:40:57.637Z,5.96
2018-12-15T17:43:23.875Z,6.03
2018-12-15T17:45:50.025Z,6.15
2018-12-15T17:48:16.429Z,6.57
2018-12-15T17:50:42.605Z,6.46
2018-12-15T17:53:09.016Z,6.45
2018-12-15T17:55:35.209Z,6.37
2018-12-15T17:58:01.383Z,6.46
2018-12-15T18:00:27.665Z,6.42
2018-12-15T18:02:53.845Z,6.51
2018-12-15T18:05:20.154Z,6.63
2018-12-15T18:07:46.754Z,6.88
2018-12-15T18:10:13.194Z,6.37
2018-12-15T18:12:39.421Z,6.36
2018-12-15T18:15:06.045Z,6.55
2018-12-15T18:17:32.276Z,6.68
2018-12-15T18:19:58.544Z,6.60
2018-12-15T18:22:24.772Z,6.49
2018-12-15T18:24:50.945Z,6.09
2018-12-15T18:27:17.227Z,6.32
2018-12-15T18:29:43.455Z,6.58
2018-12-15T18:32:09.683Z,6.63
2018-12-15T18:34:35.914Z,6.67
2018-12-15T18:37:02.105Z,6.85
2018-12-15T18:39:28.371Z,6.73
2018-12-15T18:41:54.580Z,7.05
2018-12-15T18:46:57.085Z,7.06
2018-12-15T18:49:23.314Z,6.29
2018-12-15T18:51:49.541Z,6.55
2018-12-15T18:54:16.558Z,6.40
2018-12-15T18:56:43.021Z,6.56
2018-12-15T18:59:09.636Z,6.44
2018-12-15T19:01:35.881Z,6.15
2018-12-15T19:04:02.284Z,6.11
2018-12-15T19:06:28.447Z,6.31
2018-12-15T19:08:54.746Z,6.38
2018-12-15T19:11:20.901Z,6.63
2018-12-15T19:13:47.197Z,6.43
2018-12-15T19:16:13.425Z,6.48
2018-12-15T19:18:39.613Z,6.53
2018-12-15T19:21:05.881Z,6.47
2018-12-15T19:23:32.086Z,6.49
2018-12-15T19:25:58.270Z,6.42
2018-12-15T19:28:24.560Z,6.25
2018-12-15T19:30:50.745Z,6.24
2018-12-15T19:33:16.905Z,6.28
2018-12-15T19:35:43.249Z,6.26
2018-12-15T19:38:09.418Z,6.15
2018-12-15T19:40:35.737Z,6.09
2018-12-15T19:43:01.866Z,5.80
2018-12-15T19:45:28.052Z,5.75
2018-12-15T19:47:54.214Z,5.75
2018-12-15T19:50:20.412Z,6.09
2018-12-15T19:52:46.670Z,6.05
2018-12-15T19:55:12.821Z,6.36
2018-12-15T19:57:39.097Z,6.32
2018-12-15T20:00:07.366Z,6.33
2018-12-15T20:02:33.833Z,6.15
2018-12-15T20:04:59.986Z,6.32
2018-12-15T20:07:26.279Z,6.27
2018-12-15T20:09:52.930Z,6.01
2018-12-15T20:12:19.154Z,6.04
2018-12-15T20:14:45.357Z,5.76
2018-12-15T20:17:11.578Z,6.26
2018-12-15T20:19:37.806Z,6.16
2018-12-15T20:22:04.033Z,6.06
2018-12-15T20:24:30.186Z,6.05
2018-12-15T20:26:56.321Z,6.04
2018-12-15T20:29:22.749Z,5.84
2018-12-15T20:31:48.884Z,5.67
2018-12-15T20:34:15.177Z,5.64
2018-12-15T20:36:41.364Z,6.07
2018-12-15T20:39:07.494Z,5.98
2018-12-15T20:41:33.710Z,6.29
2018-12-15T20:44:00.116Z,6.17
2018-12-15T20:46:26.257Z,5.98
2018-12-15T20:48:52.409Z,5.74
2018-12-15T20:51:18.799Z,5.56
2018-12-15T20:53:45.029Z,5.59
2018-12-15T20:56:11.255Z,5.71
2018-12-15T20:58:37.455Z,5.84
2018-12-15T21:01:03.714Z,5.92
2018-12-15T21:03:29.938Z,5.77
2018-12-15T21:06:03.397Z,5.64
2018-12-15T21:08:29.610Z,5.42
2018-12-15T21:10:55.745Z,5.42
2018-12-15T21:13:21.910Z,5.50
2018-12-15T21:15:50.124Z,5.62
2018-12-15T21:18:16.317Z,5.78
2018-12-15T21:20:42.545Z,6.04
2018-12-15T21:23:08.774Z,5.83
2018-12-15T21:25:34.900Z,5.72
2018-12-15T21:28:01.228Z,5.73
2018-12-15T21:30:27.661Z,5.82
2018-12-15T21:32:53.889Z,6.01
2018-12-15T21:35:20.733Z,6.37
2018-12-15T21:37:47.368Z,6.13
2018-12-15T21:40:14.008Z,6.00
2018-12-15T21:42:40.848Z,6.04
2018-12-15T21:45:07.484Z,6.21
2018-12-15T21:47:34.124Z,6.62
2018-12-15T21:50:00.554Z,6.77
2018-12-15T21:52:26.961Z,6.99
2018-12-15T21:54:53.625Z,7.05
2018-12-15T21:57:19.813Z,7.11
2018-12-15T21:59:46.081Z,6.93
2018-12-15T22:02:12.309Z,7.03
2018-12-15T22:04:38.711Z,7.18
2018-12-15T22:07:04.853Z,7.34
2018-12-15T22:09:30.996Z,7.23
2018-12-15T22:11:57.629Z,7.10
2018-12-15T22:14:24.183Z,7.28
2018-12-15T22:16:52.045Z,7.10
2018-12-15T22:19:20.032Z,7.33
2018-12-15T22:21:46.432Z,7.33
2018-12-15T22:24:12.568Z,7.33
2018-12-15T22:26:38.859Z,7.28
2018-12-15T22:29:05.006Z,7.33
2018-12-15T22:31:31.343Z,7.45
2018-12-15T22:33:57.506Z,7.37
2018-12-15T22:36:25.195Z,7.48
2018-12-15T22:38:53.097Z,7.49
2018-12-15T22:41:19.735Z,7.58
2018-12-15T22:43:46.579Z,7.45
2018-12-15T22:46:12.749Z,7.41
2018-12-15T22:48:38.921Z,7.54
2018-12-15T22:51:05.231Z,7.32
2018-12-15T22:53:31.489Z,7.45
2018-12-15T22:55:57.687Z,7.32
2018-12-15T22:58:23.943Z,7.39
2018-12-15T23:00:56.429Z,7.37
2018-12-15T23:03:23.159Z,7.28
2018-12-15T23:05:49.356Z,7.10
2018-12-15T23:08:15.582Z,7.33
2018-12-15T23:10:41.744Z,7.08
2018-12-15T23:13:15.032Z,7.30
2018-12-15T23:15:41.182Z,7.49
2018-12-15T23:18:07.488Z,7.65
2018-12-15T23:20:33.925Z,7.39
2018-12-15T23:23:00.148Z,7.26
2018-12-15T23:25:26.328Z,7.19
2018-12-15T23:27:52.476Z,7.27
2018-12-15T23:30:18.742Z,7.09
2018-12-15T23:32:45.057Z,7.24
2018-12-15T23:35:11.492Z,7.23
2018-12-15T23:37:37.719Z,6.74
2018-12-15T23:40:05.356Z,6.01
2018-12-15T23:42:31.608Z,6.08
2018-12-15T23:44:58.013Z,5.99
2018-12-15T23:47:24.269Z,5.57
2018-12-15T23:49:50.404Z,5.85
2018-12-15T23:52:23.110Z,5.65
2018-12-15T23:54:44.751Z,5.58
2018-12-15T23:57:10.898Z,5.38
2018-12-15T23:59:37.250Z,5.66
